createdAt,value
2022-10-10T00:00:18.593Z,2.80
2022-10-10T00:02:52.194Z,2.73
2022-10-10T00:05:25.381Z,3.03
2022-10-10T00:07:55.489Z,2.63
2022-10-10T00:10:25.777Z,2.80
2022-10-10T00:13:00.666Z,2.53
2022-10-10T00:15:31.980Z,2.93
2022-10-10T00:18:02.088Z,3.00
2022-10-10T00:20:32.268Z,2.97
2022-10-10T00:23:12.070Z,3.30
2022-10-10T00:25:42.292Z,3.00
2022-10-10T00:28:15.265Z,2.80
2022-10-10T00:30:49.563Z,3.10
2022-10-10T00:33:19.776Z,3.30
2022-10-10T00:35:50.857Z,3.43
2022-10-10T00:38:21.049Z,3.50
2022-10-10T00:41:01.411Z,3.50
2022-10-10T00:43:39.598Z,3.90
2022-10-10T00:46:13.561Z,3.10
2022-10-10T00:48:49.503Z,3.07
2022-10-10T00:51:25.704Z,2.87
2022-10-10T00:54:01.225Z,3.00
2022-10-10T00:56:37.409Z,2.83
2022-10-10T00:59:13.024Z,2.97
2022-10-10T01:01:44.475Z,2.73
2022-10-10T01:04:42.951Z,2.83
2022-10-10T01:07:25.556Z,2.70
2022-10-10T01:10:04.106Z,2.60
2022-10-10T01:12:55.230Z,2.17
2022-10-10T01:15:45.215Z,2.50
2022-10-10T01:18:27.888Z,2.30
2022-10-10T01:21:23.202Z,2.43
2022-10-10T01:24:53.812Z,2.90
2022-10-10T01:27:46.189Z,2.57
2022-10-10T01:30:24.128Z,2.70
2022-10-10T01:33:09.566Z,2.53
2022-10-10T01:35:56.292Z,2.53
2022-10-10T01:38:41.780Z,2.60
2022-10-10T01:41:19.754Z,2.53
2022-10-10T01:43:57.259Z,2.83
2022-10-10T01:46:29.974Z,2.50
2022-10-10T01:49:07.038Z,2.43
2022-10-10T01:52:08.083Z,2.60
2022-10-10T01:54:53.472Z,2.90
2022-10-10T01:57:38.189Z,2.70
2022-10-10T02:00:15.535Z,2.47
2022-10-10T02:02:59.628Z,2.40
2022-10-10T02:05:42.074Z,2.90
2022-10-10T02:08:26.491Z,2.47
2022-10-10T02:11:03.143Z,2.60
2022-10-10T02:13:41.367Z,2.60
2022-10-10T02:16:20.831Z,2.73
2022-10-10T02:19:05.166Z,2.83
2022-10-10T02:21:45.319Z,2.50
2022-10-10T02:24:28.452Z,2.90
2022-10-10T02:27:08.739Z,2.73
2022-10-10T02:29:52.296Z,2.73
2022-10-10T02:32:32.622Z,2.77
2022-10-10T02:35:12.579Z,2.77
2022-10-10T02:37:52.801Z,2.50
2022-10-10T02:40:30.046Z,2.67
2022-10-10T02:43:03.863Z,2.63
2022-10-10T02:45:35.668Z,3.00
2022-10-10T02:48:09.350Z,2.80
2022-10-10T02:50:42.164Z,2.80
2022-10-10T02:53:14.941Z,2.60
2022-10-10T02:55:45.080Z,2.33
2022-10-10T02:58:15.158Z,2.77
2022-10-10T03:00:45.344Z,2.80
2022-10-10T03:03:15.599Z,2.77
2022-10-10T03:05:52.050Z,2.80
2022-10-10T03:08:22.196Z,3.17
2022-10-10T03:11:03.369Z,2.93
2022-10-10T03:13:33.493Z,3.20
2022-10-10T03:16:04.437Z,2.83
2022-10-10T03:18:36.809Z,3.13
2022-10-10T03:21:10.304Z,3.00
2022-10-10T03:23:46.556Z,2.90
2022-10-10T03:26:16.692Z,3.10
2022-10-10T03:28:46.873Z,3.20
2022-10-10T03:31:17.124Z,2.47
2022-10-10T03:33:50.326Z,2.87
2022-10-10T03:36:23.878Z,3.03
2022-10-10T03:38:54.045Z,2.90
2022-10-10T03:41:24.155Z,2.80
2022-10-10T03:44:03.296Z,3.13
2022-10-10T03:46:33.527Z,2.97
2022-10-10T03:49:03.730Z,2.77
2022-10-10T03:51:39.470Z,2.97
2022-10-10T03:54:09.764Z,2.83
2022-10-10T03:56:39.876Z,2.93
2022-10-10T03:59:13.220Z,2.73
2022-10-10T04:01:43.396Z,3.27
2022-10-10T04:04:13.813Z,3.30
2022-10-10T04:06:46.479Z,3.00
2022-10-10T04:09:16.634Z,3.10
2022-10-10T04:11:49.524Z,2.93
2022-10-10T04:14:19.612Z,3.00
2022-10-10T04:16:52.054Z,3.33
2022-10-10T04:19:22.208Z,3.03
2022-10-10T04:22:02.846Z,3.07
2022-10-10T04:24:35.880Z,2.90
2022-10-10T04:27:06.061Z,3.37
2022-10-10T04:29:36.238Z,2.90
2022-10-10T04:32:07.462Z,3.20
2022-10-10T04:34:37.608Z,2.87
2022-10-10T04:37:16.369Z,2.70
2022-10-10T04:39:46.539Z,3.30
2022-10-10T04:42:16.609Z,2.93
2022-10-10T04:44:46.767Z,2.43
2022-10-10T04:47:19.882Z,3.30
2022-10-10T04:49:50.037Z,3.70
2022-10-10T04:52:28.888Z,3.43
2022-10-10T04:54:59.021Z,3.17
2022-10-10T04:57:29.115Z,3.10
2022-10-10T04:59:59.517Z,3.30
2022-10-10T05:02:29.723Z,3.30
2022-10-10T05:04:59.865Z,3.20
2022-10-10T05:07:32.546Z,2.83
2022-10-10T05:10:10.359Z,2.80
2022-10-10T05:12:40.490Z,3.23
2022-10-10T05:15:11.890Z,3.00
2022-10-10T05:17:42.001Z,3.20
2022-10-10T05:20:13.542Z,2.97
2022-10-10T05:22:48.662Z,2.80
2022-10-10T05:25:19.317Z,3.47
2022-10-10T05:27:52.515Z,3.60
2022-10-10T05:30:22.790Z,3.50
2022-10-10T05:32:53.643Z,3.40
2022-10-10T05:35:26.653Z,3.53
2022-10-10T05:37:59.378Z,3.30
2022-10-10T05:40:29.976Z,3.40
2022-10-10T05:43:03.129Z,3.80
2022-10-10T05:45:33.250Z,3.53
2022-10-10T05:48:03.398Z,3.20
2022-10-10T05:50:38.780Z,3.23
2022-10-10T05:53:14.292Z,4.17
2022-10-10T05:55:44.512Z,3.37
2022-10-10T05:58:15.882Z,3.67
2022-10-10T06:00:52.395Z,3.80
2022-10-10T06:03:22.522Z,3.83
2022-10-10T06:05:55.189Z,3.67
2022-10-10T06:08:28.208Z,3.67
2022-10-10T06:11:05.062Z,3.47
2022-10-10T06:13:41.633Z,3.60
2022-10-10T06:16:11.888Z,3.53
2022-10-10T06:18:42.066Z,3.57
2022-10-10T06:21:14.064Z,3.77
2022-10-10T06:23:49.720Z,3.53
2022-10-10T06:26:20.435Z,4.00
2022-10-10T06:29:05.513Z,3.40
2022-10-10T06:31:39.433Z,3.77
2022-10-10T06:34:12.282Z,3.87
2022-10-10T06:36:42.375Z,3.67
2022-10-10T06:39:17.416Z,4.33
2022-10-10T06:41:47.548Z,4.10
2022-10-10T06:44:20.973Z,3.97
2022-10-10T06:46:53.454Z,3.67
2022-10-10T06:49:26.113Z,4.07
2022-10-10T06:51:58.980Z,3.93
2022-10-10T06:54:46.756Z,4.03
2022-10-10T06:57:21.922Z,3.77
2022-10-10T06:59:54.305Z,3.60
2022-10-10T07:02:25.026Z,3.03
2022-10-10T07:04:58.153Z,3.30
2022-10-10T07:07:28.375Z,3.00
2022-10-10T07:10:01.052Z,3.10
2022-10-10T07:12:36.503Z,3.53
2022-10-10T07:15:12.866Z,3.37
2022-10-10T07:17:49.255Z,3.13
2022-10-10T07:20:24.555Z,3.30
2022-10-10T07:22:57.476Z,3.30
2022-10-10T07:25:40.661Z,3.10
2022-10-10T07:28:12.134Z,3.63
2022-10-10T07:30:49.528Z,3.38
2022-10-10T07:33:35.290Z,3.05
2022-10-10T07:36:05.497Z,3.30
2022-10-10T07:38:35.665Z,2.80
2022-10-10T07:41:13.225Z,2.97
2022-10-10T07:43:50.696Z,2.90
2022-10-10T07:46:25.921Z,4.00
2022-10-10T07:48:56.081Z,2.80
2022-10-10T07:51:26.169Z,2.78
2022-10-10T07:53:56.348Z,2.78
2022-10-10T07:56:29.222Z,2.70
2022-10-10T08:01:52.116Z,2.60
2022-10-10T08:04:24.827Z,2.83
2022-10-10T08:06:55.112Z,3.08
2022-10-10T08:09:25.196Z,2.60
2022-10-10T08:11:57.981Z,2.55
2022-10-10T08:14:30.595Z,2.92
2022-10-10T08:17:12.932Z,3.15
2022-10-10T08:19:43.069Z,3.10
2022-10-10T08:22:13.260Z,3.72
2022-10-10T08:24:43.356Z,3.10
2022-10-10T08:27:17.827Z,3.20
2022-10-10T08:29:56.238Z,3.05
2022-10-10T08:32:26.357Z,3.17
2022-10-10T08:34:56.471Z,3.10
2022-10-10T08:37:30.421Z,3.15
2022-10-10T08:40:04.196Z,3.15
2022-10-10T08:42:50.246Z,3.03
2022-10-10T08:45:30.386Z,2.83
2022-10-10T08:48:10.032Z,3.20
2022-10-10T08:50:46.012Z,3.15
2022-10-10T08:53:32.192Z,3.28
2022-10-10T08:56:03.941Z,2.78
2022-10-10T08:58:43.177Z,2.75
2022-10-10T09:01:21.890Z,3.28
2022-10-10T09:03:56.284Z,2.88
2022-10-10T09:06:47.740Z,2.55
2022-10-10T09:09:31.418Z,2.67
2022-10-10T09:12:19.664Z,2.97
2022-10-10T09:15:07.360Z,2.80
2022-10-10T09:17:45.666Z,2.70
2022-10-10T09:20:34.458Z,2.40
2022-10-10T09:23:11.868Z,2.35
2022-10-10T09:25:50.461Z,2.58
2022-10-10T09:28:36.476Z,2.75
2022-10-10T09:31:17.604Z,2.15
2022-10-10T09:33:56.381Z,2.65
2022-10-10T09:36:34.158Z,2.95
2022-10-10T09:39:15.769Z,3.08
2022-10-10T09:41:54.050Z,2.15
2022-10-10T09:44:25.622Z,3.10
2022-10-10T09:47:15.199Z,2.65
2022-10-10T09:49:46.341Z,2.22
2022-10-10T09:52:29.203Z,2.55
2022-10-10T09:55:03.932Z,2.83
2022-10-10T09:57:41.989Z,2.67
2022-10-10T10:00:35.357Z,2.20
2022-10-10T10:03:21.159Z,2.42
2022-10-10T10:06:03.876Z,2.90
2022-10-10T10:08:37.429Z,2.90
2022-10-10T10:11:09.394Z,2.42
2022-10-10T10:13:40.820Z,2.55
2022-10-10T10:16:17.388Z,2.40
2022-10-10T10:18:51.041Z,2.25
2022-10-10T10:21:26.261Z,2.50
2022-10-10T10:24:00.617Z,2.47
2022-10-10T10:26:48.627Z,2.60
2022-10-10T10:29:36.521Z,2.15
2022-10-10T10:32:26.361Z,2.58
2022-10-10T10:35:27.159Z,2.30
2022-10-10T10:38:31.163Z,2.70
2022-10-10T10:41:12.657Z,2.70
2022-10-10T10:44:01.058Z,3.58
2022-10-10T10:46:48.979Z,2.95
2022-10-10T10:49:38.424Z,3.03
2022-10-10T10:52:40.301Z,2.67
2022-10-10T10:55:30.704Z,2.50
2022-10-10T10:59:16.097Z,2.35
2022-10-10T11:02:02.453Z,2.75
2022-10-10T11:05:23.135Z,2.17
2022-10-10T11:08:17.645Z,6.68
2022-10-10T11:10:58.206Z,2.42
2022-10-10T11:13:38.248Z,2.80
2022-10-10T11:16:46.811Z,2.60
2022-10-10T11:19:30.302Z,2.90
2022-10-10T11:22:08.929Z,2.50
2022-10-10T11:24:49.232Z,2.63
2022-10-10T11:27:26.101Z,3.10
2022-10-10T11:30:15.203Z,2.38
2022-10-10T11:32:54.607Z,2.50
2022-10-10T11:35:40.851Z,2.60
2022-10-10T11:38:23.317Z,2.70
2022-10-10T11:41:05.494Z,2.45
2022-10-10T11:43:48.290Z,2.75
2022-10-10T11:46:33.037Z,2.42
2022-10-10T11:49:15.662Z,2.20
2022-10-10T11:52:32.331Z,2.47
2022-10-10T11:55:15.580Z,2.53
2022-10-10T11:58:00.276Z,2.67
2022-10-10T12:00:32.598Z,2.75
2022-10-10T12:03:03.486Z,2.95
2022-10-10T12:05:38.900Z,2.63
2022-10-10T12:08:22.991Z,3.47
2022-10-10T12:10:59.681Z,2.97
2022-10-10T12:13:45.843Z,2.92
2022-10-10T12:16:28.221Z,2.75
2022-10-10T12:19:07.292Z,12.10
2022-10-10T12:22:00.766Z,3.53
2022-10-10T12:24:33.757Z,3.67
2022-10-10T12:27:46.435Z,4.30
2022-10-10T12:30:29.106Z,2.78
2022-10-10T12:33:02.273Z,7.13
2022-10-10T12:35:42.781Z,3.90
2022-10-10T12:38:28.884Z,2.50
2022-10-10T12:41:15.486Z,2.42
2022-10-10T12:43:55.314Z,2.72
2022-10-10T12:46:37.638Z,2.90
2022-10-10T12:49:25.252Z,2.60
2022-10-10T12:52:10.380Z,2.70
2022-10-10T12:54:48.016Z,2.42
2022-10-10T12:57:34.585Z,3.72
2022-10-10T13:00:17.146Z,7.93
2022-10-10T13:02:55.945Z,3.15
2022-10-10T13:05:35.093Z,2.90
2022-10-10T13:08:13.488Z,2.88
2022-10-10T13:10:46.652Z,3.00
2022-10-10T13:13:22.626Z,2.85
2022-10-10T13:16:01.278Z,2.92
2022-10-10T13:18:44.594Z,3.00
2022-10-10T13:21:18.030Z,2.90
2022-10-10T13:26:51.396Z,2.70
2022-10-10T13:29:29.885Z,2.90
2022-10-10T13:32:06.795Z,2.83
2022-10-10T13:34:45.846Z,2.95
2022-10-10T13:37:20.154Z,2.75
2022-10-10T13:39:54.464Z,2.88
2022-10-10T13:42:35.843Z,3.30
2022-10-10T13:45:48.049Z,2.88
2022-10-10T13:48:39.963Z,2.60
2022-10-10T13:51:16.031Z,3.05
2022-10-10T13:53:57.015Z,3.50
2022-10-10T13:56:34.062Z,3.55
2022-10-10T13:59:14.658Z,2.97
2022-10-10T14:01:57.804Z,4.97
2022-10-10T14:04:38.382Z,3.95
2022-10-10T14:07:18.665Z,4.03
2022-10-10T14:09:56.662Z,2.92
2022-10-10T14:12:49.472Z,3.58
2022-10-10T14:15:40.254Z,3.15
2022-10-10T14:18:20.088Z,2.92
2022-10-10T14:20:53.398Z,3.60
2022-10-10T14:23:26.488Z,3.50
2022-10-10T14:26:03.841Z,3.45
2022-10-10T14:28:36.494Z,3.45
2022-10-10T14:31:07.210Z,3.35
2022-10-10T14:33:37.402Z,3.20
2022-10-10T14:36:09.031Z,3.67
2022-10-10T14:38:48.205Z,3.67
2022-10-10T14:41:18.825Z,3.20
2022-10-10T14:43:52.011Z,3.67
2022-10-10T14:46:25.072Z,3.72
2022-10-10T14:48:55.817Z,3.70
2022-10-10T14:51:33.077Z,3.72
2022-10-10T14:54:14.042Z,3.83
2022-10-10T14:57:08.795Z,3.65
2022-10-10T14:59:47.543Z,3.72
2022-10-10T15:02:25.573Z,3.60
2022-10-10T15:04:59.057Z,3.75
2022-10-10T15:07:29.920Z,3.55
2022-10-10T15:13:07.006Z,4.18
2022-10-10T15:15:38.080Z,4.05
2022-10-10T15:18:25.722Z,4.10
2022-10-10T15:21:03.374Z,3.80
2022-10-10T15:23:33.895Z,3.88
2022-10-10T15:26:08.093Z,3.35
2022-10-10T15:28:38.377Z,3.97
2022-10-10T15:31:09.473Z,3.88
2022-10-10T15:33:39.605Z,3.40
2022-10-10T15:36:19.444Z,4.20
2022-10-10T15:38:55.808Z,3.78
2022-10-10T15:41:32.816Z,3.67
2022-10-10T15:44:03.181Z,4.00
2022-10-10T15:46:34.248Z,3.92
2022-10-10T15:49:05.352Z,4.20
2022-10-10T15:51:35.438Z,3.72
2022-10-10T15:54:08.840Z,3.22
2022-10-10T15:56:42.296Z,3.55
2022-10-10T15:59:14.385Z,2.95
2022-10-10T16:01:44.639Z,3.72
2022-10-10T16:04:15.634Z,3.72
2022-10-10T16:06:54.635Z,3.33
2022-10-10T16:09:41.536Z,3.38
2022-10-10T16:12:14.349Z,3.88
2022-10-10T16:14:44.987Z,3.65
2022-10-10T16:17:18.404Z,3.83
2022-10-10T16:19:54.168Z,3.35
2022-10-10T16:22:24.611Z,3.50
2022-10-10T16:27:49.736Z,3.38
2022-10-10T16:30:20.518Z,4.07
2022-10-10T16:32:51.262Z,4.00
2022-10-10T16:35:21.484Z,4.35
2022-10-10T16:37:51.622Z,4.40
2022-10-10T16:40:24.666Z,3.60
2022-10-10T16:43:10.973Z,4.22
2022-10-10T16:45:46.147Z,3.97
2022-10-10T16:48:16.837Z,4.57
2022-10-10T16:50:59.441Z,4.40
2022-10-10T16:53:30.108Z,4.07
2022-10-10T16:56:02.156Z,5.38
2022-10-10T16:58:39.748Z,4.47
2022-10-10T17:01:12.081Z,4.20
2022-10-10T17:03:47.287Z,4.20
2022-10-10T17:06:20.469Z,3.90
2022-10-10T17:08:53.598Z,5.07
2022-10-10T17:11:26.200Z,4.60
2022-10-10T17:13:59.001Z,4.30
2022-10-10T17:17:07.091Z,4.45
2022-10-10T17:19:27.095Z,4.75
2022-10-10T17:22:00.326Z,4.22
2022-10-10T17:24:30.628Z,4.30
2022-10-10T17:27:03.514Z,4.35
2022-10-10T17:29:36.848Z,5.15
2022-10-10T17:32:07.861Z,4.72
2022-10-10T17:34:43.965Z,4.93
2022-10-10T17:37:14.429Z,3.90
2022-10-10T17:39:44.699Z,4.30
2022-10-10T17:42:20.290Z,4.50
2022-10-10T17:44:56.202Z,3.85
2022-10-10T17:47:26.914Z,4.25
2022-10-10T17:49:57.268Z,3.70
2022-10-10T17:52:35.740Z,4.40
2022-10-10T17:55:12.669Z,4.00
2022-10-10T17:57:48.344Z,7.43
2022-10-10T18:00:22.196Z,5.80
2022-10-10T18:02:55.722Z,5.43
2022-10-10T18:05:25.864Z,4.20
2022-10-10T18:07:58.548Z,4.60
2022-10-10T18:10:32.848Z,4.43
2022-10-10T18:13:04.664Z,7.13
2022-10-10T18:15:40.368Z,5.68
2022-10-10T18:18:11.170Z,4.53
2022-10-10T18:20:44.944Z,5.80
2022-10-10T18:23:27.381Z,5.40
2022-10-10T18:26:07.271Z,4.85
2022-10-10T18:28:42.546Z,5.80
2022-10-10T18:31:19.789Z,7.22
2022-10-10T18:33:51.107Z,7.07
2022-10-10T18:36:24.216Z,6.53
2022-10-10T18:38:57.356Z,5.47
2022-10-10T18:41:34.440Z,6.38
2022-10-10T18:44:09.688Z,8.93
2022-10-10T18:46:43.184Z,6.20
2022-10-10T18:49:17.683Z,7.35
2022-10-10T18:51:48.338Z,12.13
2022-10-10T18:54:21.381Z,12.85
2022-10-10T18:56:52.008Z,12.73
2022-10-10T18:59:24.228Z,11.35
2022-10-10T19:01:57.172Z,9.73
2022-10-10T19:04:27.895Z,8.93
2022-10-10T19:06:58.381Z,9.15
2022-10-10T19:09:34.255Z,11.18
2022-10-10T19:12:10.678Z,9.68
2022-10-10T19:14:41.718Z,13.15
2022-10-10T19:17:14.714Z,7.82
2022-10-10T19:19:53.524Z,11.10
2022-10-10T19:22:26.738Z,11.93
2022-10-10T19:24:57.112Z,15.57
2022-10-10T19:27:30.161Z,26.35
2022-10-10T19:30:00.435Z,32.35
2022-10-10T19:32:35.943Z,15.60
2022-10-10T19:35:12.353Z,23.20
2022-10-10T19:37:44.888Z,15.68
2022-10-10T19:40:15.616Z,11.98
2022-10-10T19:42:48.815Z,10.93
2022-10-10T19:45:18.986Z,5.63
2022-10-10T19:47:51.896Z,5.13
2022-10-10T19:50:22.124Z,4.00
2022-10-10T19:52:52.401Z,2.72
2022-10-10T19:55:22.562Z,2.88
2022-10-10T19:57:52.869Z,2.92
2022-10-10T20:00:23.169Z,7.00
2022-10-10T20:02:55.949Z,3.50
2022-10-10T20:05:29.213Z,4.60
2022-10-10T20:07:59.535Z,4.50
2022-10-10T20:10:36.391Z,7.07
2022-10-10T20:13:07.518Z,5.45
2022-10-10T20:15:37.720Z,6.25
2022-10-10T20:18:13.137Z,8.63
2022-10-10T20:20:54.468Z,9.07
2022-10-10T20:23:28.084Z,13.88
2022-10-10T20:25:58.344Z,4.47
2022-10-10T20:28:33.395Z,5.53
2022-10-10T20:31:03.616Z,2.63
2022-10-10T20:33:38.752Z,12.43
2022-10-10T20:36:09.798Z,10.75
2022-10-10T20:38:43.561Z,6.32
2022-10-10T20:41:14.072Z,6.30
2022-10-10T20:43:44.592Z,6.97
2022-10-10T20:46:18.767Z,3.60
2022-10-10T20:48:56.008Z,4.85
2022-10-10T20:51:28.651Z,8.02
2022-10-10T20:54:02.605Z,6.38
2022-10-10T20:56:37.810Z,11.73
2022-10-10T20:59:08.265Z,9.82
2022-10-10T21:01:52.465Z,5.72
2022-10-10T21:04:27.828Z,7.53
2022-10-10T21:07:03.444Z,6.35
2022-10-10T21:09:40.983Z,4.53
2022-10-10T21:12:11.399Z,3.90
2022-10-10T21:14:41.841Z,3.25
2022-10-10T21:17:17.918Z,3.80
2022-10-10T21:19:51.032Z,5.28
2022-10-10T21:22:27.342Z,6.10
2022-10-10T21:24:59.886Z,4.85
2022-10-10T21:27:30.412Z,4.38
2022-10-10T21:30:00.887Z,5.20
2022-10-10T21:32:30.968Z,3.65
2022-10-10T21:35:03.707Z,3.05
2022-10-10T21:37:34.181Z,3.40
2022-10-10T21:40:04.327Z,4.50
2022-10-10T21:42:37.439Z,3.67
2022-10-10T21:45:11.780Z,2.80
2022-10-10T21:47:45.051Z,2.30
2022-10-10T21:50:18.305Z,2.45
2022-10-10T21:52:48.678Z,2.33
2022-10-10T21:55:19.565Z,2.60
2022-10-10T21:57:50.014Z,10.38
2022-10-10T22:00:21.485Z,22.05
2022-10-10T22:02:51.783Z,14.40
2022-10-10T22:05:24.566Z,6.55
2022-10-10T22:07:54.799Z,3.35
2022-10-10T22:10:26.053Z,5.05
2022-10-10T22:12:57.289Z,8.00
2022-10-10T22:15:27.648Z,19.27
2022-10-10T22:17:58.514Z,47.45
2022-10-10T22:20:31.218Z,33.70
2022-10-10T22:23:01.368Z,63.65
2022-10-10T22:25:31.533Z,37.33
2022-10-10T22:28:06.055Z,28.00
2022-10-10T22:30:37.036Z,41.28
2022-10-10T22:33:07.459Z,16.92
2022-10-10T22:35:40.638Z,9.15
2022-10-10T22:38:10.876Z,4.45
2022-10-10T22:40:41.252Z,3.90
2022-10-10T22:43:11.431Z,2.38
2022-10-10T22:45:41.914Z,2.65
2022-10-10T22:48:14.774Z,2.17
2022-10-10T22:50:47.605Z,3.00
2022-10-10T22:53:17.887Z,3.30
2022-10-10T22:55:48.281Z,3.03
2022-10-10T22:58:20.637Z,1.90
2022-10-10T23:00:52.896Z,2.10
2022-10-10T23:03:23.390Z,2.00
2022-10-10T23:05:56.649Z,1.90
2022-10-10T23:08:27.084Z,2.27
2022-10-10T23:10:57.797Z,2.50
2022-10-10T23:13:28.761Z,2.00
2022-10-10T23:15:59.616Z,2.77
2022-10-10T23:18:32.288Z,2.17
2022-10-10T23:21:05.132Z,2.63
2022-10-10T23:23:35.378Z,2.20
2022-10-10T23:26:09.461Z,2.43
2022-10-10T23:28:40.016Z,2.50
2022-10-10T23:31:14.443Z,3.07
2022-10-10T23:33:47.841Z,2.43
2022-10-10T23:36:20.757Z,2.27
2022-10-10T23:38:51.297Z,2.50
2022-10-10T23:41:21.824Z,3.20
2022-10-10T23:43:52.297Z,2.37
2022-10-10T23:46:22.865Z,2.37
2022-10-10T23:48:53.117Z,2.30
2022-10-10T23:51:29.656Z,2.40
2022-10-10T23:53:59.951Z,3.03
2022-10-10T23:56:30.489Z,1.97
2022-10-10T23:59:00.800Z,2.57
